Welcome to Des Moines Iowa Weather. I am an independent private personal weather station on the Northwest Side of Des Moines, Iowa. Just East of Windsor Heights and just West of Glendale . This site is also mobile friendly.

There are no active watches, warnings or advisories


Visit our other weather sites:

Historical Data

Weather Station Setup



Weather Underground History page Text

Daily Summary for July 25, 2017 Units:  English    Metric   Both
« Previous Day
Next Day »
Daily Weekly Monthly Yearly Custom
  High: Low: Average:
Temperature: 94.3 °F 67.1 °F 80.3 °F
Dew Point: 74.0 °F 65.0 °F 69.8 °F
Humidity: 92 % 50 % 72 %
Wind Speed: 6.0 mph 0.0 mph 0.7 mph
Wind Gust: 9.0 mph - -
Wind:- - SSE
Pressure: 30.03 in 29.89 in -
Precipitation: 0.00 in    
Historical Graphs
 
 
Tabular Data for July 25, 2017
Time Temperature Dew Point Pressure Wind Wind Speed Wind Gust Humidity Rainfall Rate (Hourly)
00:00 71.9 °F 66.0 °F 29.98 in SSE 1.0 mph 7.0 mph 82 % 0.00 in
00:15 71.5 °F 66.0 °F 29.98 in SSE 2.0 mph 9.0 mph 83 % 0.00 in
00:31 71.2 °F 66.0 °F 29.99 in Calm   5.0 mph 83 % 0.00 in
00:45 70.9 °F 66.0 °F 29.99 in SSE 1.0 mph 7.0 mph 84 % 0.00 in
01:00 70.6 °F 66.0 °F 30.00 in SSE 1.0 mph 3.0 mph 84 % 0.00 in
01:15 70.4 °F 66.0 °F 30.00 in SSE 3.0 mph 6.0 mph 85 % 0.00 in
01:30 70.1 °F 65.0 °F 30.00 in Calm   6.0 mph 85 % 0.00 in
01:45 69.9 °F 66.0 °F 30.01 in Calm   3.0 mph 86 % 0.00 in
02:00 69.7 °F 65.0 °F 30.00 in SE 1.0 mph 4.0 mph 86 % 0.00 in
02:15 69.5 °F 65.0 °F 30.00 in Calm   7.0 mph 86 % 0.00 in
02:30 69.3 °F 65.0 °F 30.00 in Calm   8.0 mph 87 % 0.00 in
02:45 69.0 °F 65.0 °F 30.00 in Calm   7.0 mph 87 % 0.00 in
03:00 68.8 °F 65.0 °F 30.01 in SE 1.0 mph 4.0 mph 87 % 0.00 in
03:15 68.7 °F 65.0 °F 30.01 in Calm   4.0 mph 88 % 0.00 in
03:30 68.6 °F 65.0 °F 30.00 in SSW 1.0 mph 4.0 mph 88 % 0.00 in
03:45 68.5 °F 65.0 °F 30.00 in ESE 3.0 mph 4.0 mph 88 % 0.00 in
04:01 68.2 °F 65.0 °F 29.99 in South 1.0 mph 5.0 mph 88 % 0.00 in
04:15 68.0 °F 65.0 °F 29.99 in Calm   4.0 mph 89 % 0.00 in
04:30 67.8 °F 65.0 °F 29.99 in Calm   4.0 mph 89 % 0.00 in
04:46 67.7 °F 65.0 °F 29.98 in South 1.0 mph 5.0 mph 90 % 0.00 in
05:01 67.6 °F 65.0 °F 29.98 in Calm   5.0 mph 90 % 0.00 in
05:16 67.5 °F 65.0 °F 29.99 in Calm   5.0 mph 90 % 0.00 in
05:31 67.4 °F 65.0 °F 29.99 in Calm   4.0 mph 90 % 0.00 in
05:46 67.3 °F 65.0 °F 30.00 in Calm   4.0 mph 91 % 0.00 in
06:01 67.2 °F 65.0 °F 30.00 in Calm   2.0 mph 91 % 0.00 in
06:16 67.1 °F 65.0 °F 30.01 in WSW 2.0 mph 7.0 mph 91 % 0.00 in
06:31 67.1 °F 65.0 °F 30.02 in Calm   4.0 mph 92 % 0.00 in
06:46 67.2 °F 65.0 °F 30.02 in Calm   3.0 mph 92 % 0.00 in
07:01 67.3 °F 65.0 °F 30.02 in Calm   2.0 mph 92 % 0.00 in
07:16 67.6 °F 65.0 °F 30.01 in South 1.0 mph 3.0 mph 92 % 0.00 in
07:31 68.1 °F 66.0 °F 30.02 in Calm   4.0 mph 92 % 0.00 in
07:46 68.5 °F 66.0 °F 30.02 in Calm   8.0 mph 92 % 0.00 in
08:01 69.1 °F 66.0 °F 30.03 in Calm   4.0 mph 91 % 0.00 in
08:16 69.8 °F 67.0 °F 30.03 in South 1.0 mph 5.0 mph 90 % 0.00 in
08:31 70.6 °F 67.0 °F 30.02 in Calm   6.0 mph 89 % 0.00 in
08:46 71.4 °F 67.0 °F 30.02 in WSW 2.0 mph 4.0 mph 87 % 0.00 in
09:01 72.2 °F 68.0 °F 30.02 in Calm   5.0 mph 86 % 0.00 in
09:16 73.1 °F 68.0 °F 30.01 in SSE 4.0 mph 5.0 mph 85 % 0.00 in
09:31 74.2 °F 70.0 °F 30.01 in WSW 3.0 mph 4.0 mph 85 % 0.00 in
09:46 75.2 °F 69.0 °F 30.01 in NNE 3.0 mph 7.0 mph 81 % 0.00 in
10:01 76.3 °F 69.0 °F 30.01 in SW 1.0 mph 6.0 mph 79 % 0.00 in
10:16 77.3 °F 70.0 °F 30.00 in SSW 1.0 mph 5.0 mph 77 % 0.00 in
10:32 78.3 °F 70.0 °F 30.01 in SE 1.0 mph 8.0 mph 75 % 0.00 in
10:46 79.3 °F 70.0 °F 30.00 in Calm   4.0 mph 73 % 0.00 in
11:02 80.7 °F 70.0 °F 30.01 in Calm   6.0 mph 70 % 0.00 in
11:17 82.6 °F 71.0 °F 30.01 in Calm   6.0 mph 67 % 0.00 in
11:32 84.1 °F 70.0 °F 30.01 in ENE 2.0 mph 5.0 mph 63 % 0.00 in
11:47 85.4 °F 70.0 °F 30.01 in South 2.0 mph 5.0 mph 61 % 0.00 in
12:02 86.4 °F 71.0 °F 30.01 in SSE 2.0 mph 8.0 mph 60 % 0.00 in
12:17 87.6 °F 71.0 °F 30.01 in Calm   6.0 mph 58 % 0.00 in
12:32 88.2 °F 71.0 °F 30.00 in Calm   6.0 mph 57 % 0.00 in
12:47 88.6 °F 71.0 °F 30.00 in Calm   8.0 mph 56 % 0.00 in
13:02 89.2 °F 71.0 °F 29.99 in Calm   4.0 mph 55 % 0.00 in
13:17 89.7 °F 71.0 °F 29.99 in ENE 1.0 mph 5.0 mph 55 % 0.00 in
13:32 90.2 °F 71.0 °F 29.98 in Calm   4.0 mph 54 % 0.00 in
13:48 91.0 °F 73.0 °F 29.98 in WNW 3.0 mph 5.0 mph 55 % 0.00 in
14:02 91.5 °F 73.0 °F 29.98 in SE 2.0 mph 5.0 mph 54 % 0.00 in
14:17 92.5 °F 72.0 °F 29.98 in SSW 1.0 mph 7.0 mph 52 % 0.00 in
14:32 93.1 °F 73.0 °F 29.98 in SSW 3.0 mph 6.0 mph 52 % 0.00 in
14:47 93.7 °F 73.0 °F 29.97 in Calm   5.0 mph 52 % 0.00 in
15:02 93.7 °F 73.0 °F 29.96 in South 6.0 mph 6.0 mph 51 % 0.00 in
15:18 92.6 °F 72.0 °F 29.96 in ENE 1.0 mph 7.0 mph 52 % 0.00 in
15:32 93.3 °F 73.0 °F 29.96 in West 1.0 mph 6.0 mph 52 % 0.00 in
15:48 93.0 °F 74.0 °F 29.95 in Calm   5.0 mph 55 % 0.00 in
16:03 93.2 °F 74.0 °F 29.95 in Calm   8.0 mph 54 % 0.00 in
16:18 93.3 °F 73.0 °F 29.94 in Calm   3.0 mph 51 % 0.00 in
16:33 93.8 °F 73.0 °F 29.93 in SSE 3.0 mph 5.0 mph 51 % 0.00 in
16:48 93.5 °F 74.0 °F 29.93 in Calm   6.0 mph 53 % 0.00 in
17:03 93.9 °F 74.0 °F 29.92 in South 3.0 mph 4.0 mph 52 % 0.00 in
17:18 94.3 °F 73.0 °F 29.91 in South 1.0 mph 4.0 mph 50 % 0.00 in
17:33 93.6 °F 73.0 °F 29.91 in Calm   6.0 mph 51 % 0.00 in
17:48 93.3 °F 74.0 °F 29.89 in Calm   7.0 mph 53 % 0.00 in
18:03 93.1 °F 73.0 °F 29.89 in ENE 3.0 mph 4.0 mph 53 % 0.00 in
18:18 92.6 °F 73.0 °F 29.89 in Calm   5.0 mph 53 % 0.00 in
18:33 92.7 °F 73.0 °F 29.90 in SW 1.0 mph 4.0 mph 53 % 0.00 in
18:48 92.2 °F 74.0 °F 29.91 in Calm   5.0 mph 55 % 0.00 in
19:03 91.5 °F 74.0 °F 29.91 in Calm   8.0 mph 56 % 0.00 in
19:18 90.7 °F 73.0 °F 29.91 in Calm   4.0 mph 57 % 0.00 in
19:33 90.1 °F 74.0 °F 29.91 in Calm   5.0 mph 59 % 0.00 in
19:48 89.5 °F 74.0 °F 29.92 in Calm   1.0 mph 60 % 0.00 in
20:03 88.8 °F 74.0 °F 29.92 in Calm   2.0 mph 61 % 0.00 in
20:18 87.9 °F 73.0 °F 29.92 in Calm   3.0 mph 62 % 0.00 in
20:33 87.2 °F 74.0 °F 29.91 in Calm   2.0 mph 64 % 0.00 in
20:48 86.5 °F 73.0 °F 29.91 in North 1.0 mph 4.0 mph 65 % 0.00 in
21:03 85.8 °F 73.0 °F 29.92 in Calm   4.0 mph 66 % 0.00 in
21:18 85.2 °F 74.0 °F 29.93 in Calm   1.0 mph 68 % 0.00 in
21:33 84.8 °F 74.0 °F 29.94 in Calm   6.0 mph 69 % 0.00 in
21:48 84.3 °F 74.0 °F 29.94 in Calm   3.0 mph 70 % 0.00 in
22:03 83.9 °F 74.0 °F 29.94 in Calm   2.0 mph 72 % 0.00 in
22:18 83.5 °F 74.0 °F 29.94 in Calm   2.0 mph 72 % 0.00 in
22:33 83.0 °F 74.0 °F 29.94 in Calm   3.0 mph 73 % 0.00 in
22:48 82.5 °F 74.0 °F 29.94 in Calm   1.0 mph 75 % 0.00 in
23:03 82.1 °F 74.0 °F 29.95 in Calm     76 % 0.00 in
23:18 81.7 °F 73.0 °F 29.95 in Calm     76 % 0.00 in
23:33 81.1 °F 74.0 °F 29.96 in Calm   1.0 mph 78 % 0.00 in
23:48 80.8 °F 74.0 °F 29.95 in Calm     79 % 0.00 in
Des Moines Weather and Climate
Compliments of Weather Underground - 3 mb

Script developed by  Jim McMurry - jmcmurry@mwt.net Adapted for the template by  Wim van der Kuil - Leuven-Template.eu

You find our weather info also at:

Weather Underground

Equipment we use:

Weather-station
Davis VP2 Plus

Weather-program
Davis Weatherlink.Com

Weather-server
iMac (Retina 4K, 21.5-inch, Late 2015)

Provider
Hostmonster.com

Davis VP2 Plus

Davis Weatherlink.Com

iMac (Retina 4K, 21.5-inch, Late 2015)

Hostmonster.com